Latest Coastal Weather Observations for Sydney Airport

IDN60701

Issued at 1:05 pm EST Saturday 26 July 2014 (issued every 10 minutes, with the page automatically refreshed every 10 minutes)

About coastal observations | Map of coastal stations | Coastal observations for NSW | Marine services | Other Formats
Station Details ID: 066037 Name: SYDNEY AIRPORT AMO Lat: -33.95 Lon: 151.17 Height: 6.0 m
Data from the previous 72 hours. | See also: Recent months at Sydney Airport
Date/Time
EST
Temp

°C
Wind Pressure Rain
since 9am
mm
Weather Cloud Vis
km
Sea
Height
m
Swell
Dir
 
Speed
knots
Gust
knots
hPa Trend Height
m
Period
s
Dir
26/01:00pm 16.6 NW 7 8 1021.1 - 1.0 - Mostly clear 10 - - - -
26/12:30pm 14.3 WNW 7 9 1022.1 - 1.0 - Mostly clear 10 - - - -
26/12:00pm 13.8 NW 7 10 1022.6 F 1.0 Distant precip. Mostly cloudy 25 - - - -
26/11:30am 13.3 WNW 8 10 1022.9 - 1.0 - Mostly clear 10 - - - -
26/11:00am 12.8 W 12 17 1023.7 - 1.0 - Mostly clear 10 - - - -
26/10:30am 14.3 NNE 8 10 1022.7 - 1.0 Drizzle Mostly clear 10 - - - -
26/10:00am 13.4 N 12 14 1024.0 - 1.0 - Mostly clear 7 - - - -
26/09:30am 13.4 N 9 10 1023.8 - 0.8 Rain Mostly clear 7 - - - -
26/09:00am 13.1 W 6 9 1024.5 R 2.6 Rain Cloudy 9 - - - -
26/08:44am 13.3 W 7 13 1024.3 - 2.2 Showers Partly cloudy 6 - - - -
26/08:30am 12.9 SW 4 8 1024.0 - 2.2 - Mostly clear 10 - - - -
26/08:00am 12.6 SW 5 7 1024.0 - 2.2 - Mostly clear 10 - - - -
26/07:52am 12.7 WSW 6 9 1024.2 - 2.2 Rain Partly cloudy 9 - - - -
26/07:30am 12.8 W 6 9 1024.3 - 2.0 Rain Partly cloudy 6 - - - -
26/07:22am 13.1 W 6 8 1024.4 - 1.8 Rain Partly cloudy 6 - - - -
26/07:00am 13.4 NW 7 9 1024.1 - 1.2 - Partly cloudy 7 - - - -
26/06:53am 13.6 NW 7 10 1024.0 - 1.2 Rain Mostly clear 7 - - - -
26/06:30am 13.3 NW 7 9 1023.7 - 0.8 Rain Mostly clear 10 - - - -
26/06:00am 13.7 NNW 7 9 1023.2 R 0.6 Rain Cloudy 15 - - - -
26/05:30am 13.6 NNW 8 10 1023.3 - 0.6 Rain Mostly clear 10 - - - -
26/05:00am 13.9 NW 4 8 1022.4 - 0.4 - Partly cloudy 10 - - - -
26/04:30am 13.8 NW 5 7 1022.0 - 0.4 - Partly cloudy 10 - - - -
26/04:00am 14.0 N 5 7 1021.9 - 0.4 - Partly cloudy 10 - - - -
26/03:30am 13.8 W 7 9 1022.0 - 0.4 - Partly cloudy 10 - - - -
26/03:00am 13.4 SW 6 7 1021.9 F 0.4 Fine Mostly cloudy 40 - - - -
26/02:30am 14.3 NNW 7 8 1022.3 - 0.4 - Partly cloudy 10 - - - -
26/02:00am 14.8 N 6 7 1022.2 - 0.4 - - 10 - - - -
26/01:30am 15.5 NNW 4 5 1022.4 - 0.4 - - 10 - - - -
26/01:00am 15.4 NNE 4 5 1022.4 - 0.4 - - 10 - - - -
26/12:30am 15.9 NNE 4 5 1022.7 - 0.4 - Partly cloudy 10 - - - -
26/12:00am 16.4 N 6 7 1022.7 R 0.4 Fine Mostly cloudy 40 - - - -
 
Date/Time
EST
Temp

°C
Wind Pressure Rain
since 9am
mm
Weather Cloud Vis
km
Sea
Height
m
Swell
Dir
 
Speed
knots
Gust
knots
hPa Trend Height
m
Period
s
Dir
25/11:30pm 16.4 NNE 8 8 1022.7 - 0.4 - Partly cloudy 10 - - - -
25/11:00pm 17.5 NNE 8 9 1022.6 - 0.4 - Cloudy 10 - - - -
25/10:30pm 17.5 NNE 8 9 1022.6 - 0.4 - Partly cloudy 10 - - - -
25/10:00pm 17.6 NNE 6 7 1022.4 - 0.4 - Partly cloudy 10 - - - -
25/09:30pm 17.9 NNE 8 9 1022.5 - 0.4 - Cloudy 10 - - - -
25/09:00pm 18.1 NNE 10 12 1022.5 R 0.4 Fine Mostly cloudy 40 - - - -
25/08:30pm 18.2 N 10 12 1022.2 - 0.4 - - 10 - - - -
25/08:00pm 18.7 NNW 12 17 1022.0 - 0.4 - - 10 - - - -
25/07:30pm 19.0 NNW 13 17 1021.8 - 0.4 - - 10 - - - -
25/07:00pm 19.1 NNW 13 16 1021.4 - 0.4 - - 10 - - - -
25/06:30pm 19.1 N 13 15 1021.1 - 0.4 - - 10 - - - -
25/06:00pm 19.4 N 15 18 1020.6 R 0.4 Fine Mostly cloudy 40 - - - -
25/05:30pm 19.6 N 17 22 1020.2 - 0.4 - Mostly clear 10 - - - -
25/05:00pm 19.8 N 17 20 1019.9 - 0.4 - Mostly clear 10 - - - -
25/04:30pm 19.9 N 15 22 1019.8 - 0.4 - Mostly clear 10 - - - -
25/04:00pm 20.1 N 13 16 1019.8 - 0.4 - Mostly clear 10 - - - -
25/03:30pm 20.2 N 11 14 1019.8 - 0.4 - Mostly clear 10 - - - -
25/03:00pm 19.6 N 11 15 1019.4 F 0.4 Fine Mostly cloudy 25 - - - -
25/02:30pm 19.9 N 16 19 1019.4 - 0.4 - Mostly clear 10 - - - -
25/02:00pm 19.8 N 15 18 1019.5 - 0.4 - Mostly clear 10 - - - -
25/01:30pm 19.5 N 15 19 1019.6 - 0.4 - Mostly clear 10 - - - -
25/01:00pm 18.8 NNW 11 15 1019.8 - 0.4 - Mostly clear 10 - - - -
25/12:30pm 17.5 NNW 7 9 1020.5 - 0.4 - Mostly clear 10 - - - -
25/12:00pm 15.9 NW 7 9 1021.0 F 0.4 Distant precip. Mostly cloudy 25 - - - -
25/11:30am 15.6 NNW 9 13 1020.8 - 0.4 Rain Partly cloudy 10 - - - -
25/11:00am 14.0 N 8 10 1021.9 - 0.4 - Partly cloudy 10 - - - -
25/10:30am 12.9 N 10 13 1022.5 - 0.4 - Partly cloudy 10 - - - -
25/10:00am 11.8 W 11 17 1023.1 - 0.4 - Mostly clear 10 - - - -
25/09:30am 11.2 NNW 8 11 1023.1 - 0.2 Showers Mostly clear 9 - - - -
25/09:00am 11.4 NNW 7 8 1023.0 R 0.0 Drizzle Mostly cloudy 25 - - - -
25/08:30am 12.0 NNW 8 10 1022.2 - 0.0 Drizzle Mostly clear 10 - - - -
25/08:00am 12.1 NW 7 9 1021.9 - 0.0 - Mostly clear 10 - - - -
25/07:30am 10.0 WNW 9 10 1021.8 - 0.0 - Mostly clear 10 - - - -
25/07:00am 10.0 NW 8 10 1021.6 - 0.0 - Mostly clear 10 - - - -
25/06:30am 9.9 NNW 6 9 1021.0 - 0.0 - Mostly clear 10 - - - -
25/06:00am 9.7 N 5 6 1020.5 R 0.0 Haze Mostly clear 25 - - - -
25/05:30am 10.0 NNW 6 6 1020.3 - 0.0 - - 10 - - - -
25/05:00am 9.6 N 5 6 1020.0 - 0.0 - - 10 - - - -
25/04:30am 9.8 NNW 5 6 1020.1 - 0.0 - - 10 - - - -
25/04:00am 10.2 NNW 5 5 1019.9 - 0.0 - - 10 - - - -
25/03:30am 10.5 NNW 5 6 1019.9 - 0.0 - - 10 - - - -
25/03:00am 10.6 NNW 4 5 1020.1 R 0.0 Haze Clear 25 - - - -
25/02:30am 10.7 NW 5 6 1020.0 - 0.0 - - 10 - - - -
25/02:00am 11.3 NNW 6 6 1020.0 - 0.0 - - 10 - - - -
25/01:30am 12.3 N 5 6 1019.9 - 0.0 - - 10 - - - -
25/01:00am 12.0 N 7 7 1019.7 - 0.0 - - 10 - - - -
25/12:30am 12.7 NW 5 10 1019.8 - 0.0 Showers Partly cloudy 10 - - - -
25/12:00am 12.9 NNE 4 4 1019.9 F 0.0 Fine Mostly cloudy 40 - - - -
 
Date/Time
EST
Temp

°C
Wind Pressure Rain
since 9am
mm
Weather Cloud Vis
km
Sea
Height
m
Swell
Dir
 
Speed
knots
Gust
knots
hPa Trend Height
m
Period
s
Dir
24/11:30pm 12.6 N 4 5 1020.3 - 0.0 - Partly cloudy 10 - - - -
24/11:00pm 13.0 W 5 6 1020.7 - 0.0 - - 10 - - - -
24/10:30pm 14.1 WNW 6 8 1020.8 - 0.0 - - 10 - - - -
24/10:00pm 15.3 N 5 7 1020.7 - 0.0 - - 10 - - - -
24/09:30pm 15.7 N 5 7 1020.8 - 0.0 - - 10 - - - -
24/09:00pm 16.1 N 6 7 1020.6 R 0.0 Fine Mostly cloudy 30 - - - -
24/08:30pm 16.2 NNE 7 8 1020.5 - 0.0 - - 10 - - - -
24/08:00pm 16.0 N 7 9 1020.3 - 0.0 - - 10 - - - -
24/07:30pm 15.9 N 9 10 1020.0 - 0.0 - Partly cloudy 10 - - - -
24/07:00pm 16.7 N 9 11 1019.8 - 0.0 - Cloudy 10 - - - -
24/06:30pm 17.1 N 10 13 1019.7 - 0.0 - Cloudy 10 - - - -
24/06:00pm 17.2 N 8 9 1019.5 F 0.0 Fine Mostly cloudy 30 - - - -
24/05:30pm 17.6 N 7 8 1019.3 - 0.0 - Cloudy 10 - - - -
24/05:00pm 18.1 N 9 10 1019.1 - 0.0 - Partly cloudy 10 - - - -
24/04:30pm 18.3 N 10 13 1019.0 - 0.0 - Partly cloudy 10 - - - -
24/04:00pm 18.7 N 9 12 1019.0 - 0.0 - Mostly clear 10 - - - -
24/03:30pm 19.3 N 9 12 1018.8 - 0.0 - Mostly clear 10 - - - -
24/03:00pm 19.5 N 8 10 1018.8 F 0.0 Fine Mostly cloudy 25 - - - -
24/02:30pm 19.1 NE 8 10 1018.8 - 0.0 - Mostly clear 10 - - - -
24/02:00pm 17.2 NE 4 5 1019.3 - 0.0 - Mostly clear 10 - - - -
24/01:30pm 17.2 N 5 7 1019.7 - 0.0 - Mostly clear 10 - - - -
24/01:00pm 16.2 W 6 8 1020.3 - 0.0 - Mostly clear 10 - - - -
24/12:30pm 15.1 WNW 5 6 1020.6 - 0.0 - Mostly clear 10 - - - -
24/12:00pm 15.9 NW 6 7 1021.1 S 0.0 Fine Mostly cloudy 25 - - - -
24/11:30am 16.0 W 5 9 1021.6 - 0.0 - Mostly clear 10 - - - -
24/11:00am 15.3 W 6 8 1022.1 - 0.0 - Mostly clear 10 - - - -
24/10:30am 14.9 NW 6 9 1022.6 - 0.0 - Mostly clear 10 - - - -
24/10:00am 14.4 WNW 7 10 1022.6 - 0.0 - Mostly clear 10 - - - -
24/09:30am 14.3 NW 8 10 1022.6 - 0.0 - Mostly clear 10 - - - -
24/09:00am 13.8 NNW 5 6 1022.3 F 0.0 Haze Partly cloudy 25 - - - -
24/08:30am 12.1 NNW 6 7 1022.2 - 0.0 - Mostly clear 10 - - - -
24/08:00am 11.1 N 6 7 1022.1 - 0.0 - Mostly clear 10 - - - -
24/07:30am 10.6 NNW 5 7 1022.2 - 0.0 - Mostly clear 10 - - - -
24/07:00am 9.6 NNW 6 9 1021.9 - 0.0 - Mostly clear 10 - - - -
24/06:30am 9.8 NNW 5 6 1021.6 - 0.0 - Mostly clear 10 - - - -
24/06:00am 8.7 NW 7 7 1021.4 F 0.0 Fine Partly cloudy 20 - - - -
24/05:30am 8.6 NNW 6 7 1021.2 - 0.0 - Mostly clear 10 - - - -
24/05:00am 8.4 N 7 7 1021.0 - 0.0 - - 10 - - - -
24/04:30am 8.8 NW 5 6 1021.0 - 0.0 - - 10 - - - -
24/04:00am 8.6 NNW 7 8 1020.9 - 0.0 - - 10 - - - -
24/03:30am 9.1 NNW 6 7 1020.9 - 0.0 - - 10 - - - -
24/03:00am 9.1 NNW 6 7 1021.2 F 0.0 Fine Partly cloudy 20 - - - -
24/02:30am 9.4 N 6 6 1021.3 - 0.0 - - 10 - - - -
24/02:00am 9.7 N 6 7 1021.4 - 0.0 - Mostly clear 10 - - - -
24/01:30am 10.4 N 6 6 1021.8 - 0.0 - - 10 - - - -
24/01:00am 10.4 NNW 7 8 1022.0 - 0.0 - - 10 - - - -
24/12:30am 10.9 N 7 8 1022.1 - 0.0 - - 10 - - - -
24/12:00am 10.7 N 4 5 1022.3 F 0.0 Fine Mostly cloudy 25 - - - -
 
Date/Time
EST
Temp

°C
Wind Pressure Rain
since 9am
mm
Weather Cloud Vis
km
Sea
Height
m
Swell
Dir
 
Speed
knots
Gust
knots
hPa Trend Height
m
Period
s
Dir
23/11:30pm 11.2 NW 6 7 1022.6 - 0.0 - - 10 - - - -
23/11:00pm 11.2 W 5 6 1022.5 - 0.0 - - 10 - - - -
23/10:30pm 11.9 WNW 6 9 1022.8 - 0.0 - - 10 - - - -
23/10:00pm 13.4 NW 5 7 1023.0 - 0.0 - - 10 - - - -
23/09:30pm 14.1 N 3 4 1023.1 - 0.0 - - 10 - - - -
23/09:00pm 14.2 N 4 5 1023.0 F 0.0 Fine Mostly cloudy 30 - - - -
23/08:30pm 14.6 NE 1 3 1022.7 - 0.0 - Mostly clear 10 - - - -
23/08:00pm 14.1 ENE 5 6 1022.7 - 0.0 - - 10 - - - -
23/07:30pm 14.1 ENE 6 7 1022.5 - 0.0 - - 10 - - - -
23/07:00pm 14.6 ENE 6 7 1022.3 - 0.0 - - 10 - - - -
23/06:30pm 14.5 E 7 8 1022.3 - 0.0 - - 10 - - - -
23/06:00pm 14.5 E 6 7 1022.3 F 0.0 Fine Mostly cloudy 30 - - - -
23/05:30pm 14.4 E 7 8 1022.0 - 0.0 - - 10 - - - -
23/05:00pm 14.8 E 7 8 1021.8 - 0.0 - - 10 - - - -
23/04:30pm 15.2 E 8 9 1021.7 - 0.0 - Mostly clear 10 - - - -
23/04:00pm 15.7 E 8 10 1021.6 - 0.0 - Mostly clear 10 - - - -
23/03:30pm 16.6 ESE 8 10 1021.6 - 0.0 - Mostly clear 10 - - - -
23/03:00pm 16.9 ESE 7 9 1021.5 F 0.0 Fine Partly cloudy 30 - - - -
23/02:30pm 15.9 SE 8 10 1021.6 - 0.0 - Mostly clear 10 - - - -
23/02:00pm 15.9 SE 7 9 1021.8 - 0.0 - Partly cloudy 10 - - - -
23/01:30pm 16.6 ESE 7 9 1022.1 - 0.0 - Partly cloudy 10 - - - -

Other Formats:

Comma delimited format used in spreadsheet applications
http://www.bom.gov.au/fwo/IDN60701/IDN60701.94767.axf

JavaScript Object Notation format (JSON) in row-major order
http://www.bom.gov.au/fwo/IDN60701/IDN60701.94767.json